sensor_id;sensor_type;location;lat;lon;timestamp;P1;durP1;ratioP1;P2;durP2;ratioP2
44508;SDS011;30214;52.246;14.408;2023-05-07T00:01:51;10.75;;;7.45;;
44508;SDS011;30214;52.246;14.408;2023-05-07T00:04:18;10.20;;;7.47;;
44508;SDS011;30214;52.246;14.408;2023-05-07T00:06:45;16.83;;;7.72;;
44508;SDS011;30214;52.246;14.408;2023-05-07T00:09:12;11.65;;;7.13;;
44508;SDS011;30214;52.246;14.408;2023-05-07T00:11:43;11.55;;;7.18;;
44508;SDS011;30214;52.246;14.408;2023-05-07T00:14:14;10.50;;;7.15;;
44508;SDS011;30214;52.246;14.408;2023-05-07T00:16:41;8.85;;;7.25;;
44508;SDS011;30214;52.246;14.408;2023-05-07T00:19:08;11.73;;;7.32;;
44508;SDS011;30214;52.246;14.408;2023-05-07T00:21:36;13.45;;;7.13;;
44508;SDS011;30214;52.246;14.408;2023-05-07T00:24:03;11.52;;;7.40;;
44508;SDS011;30214;52.246;14.408;2023-05-07T00:26:31;10.82;;;8.23;;
44508;SDS011;30214;52.246;14.408;2023-05-07T00:28:58;9.77;;;6.82;;
44508;SDS011;30214;52.246;14.408;2023-05-07T00:31:26;13.48;;;7.70;;
44508;SDS011;30214;52.246;14.408;2023-05-07T00:33:53;11.80;;;7.70;;
44508;SDS011;30214;52.246;14.408;2023-05-07T00:36:20;12.05;;;7.18;;
44508;SDS011;30214;52.246;14.408;2023-05-07T00:38:47;9.32;;;7.20;;
44508;SDS011;30214;52.246;14.408;2023-05-07T00:41:15;11.15;;;7.75;;
44508;SDS011;30214;52.246;14.408;2023-05-07T00:43:42;12.82;;;7.20;;
44508;SDS011;30214;52.246;14.408;2023-05-07T00:46:09;10.57;;;7.40;;
44508;SDS011;30214;52.246;14.408;2023-05-07T00:48:39;12.38;;;7.28;;
44508;SDS011;30214;52.246;14.408;2023-05-07T00:51:06;12.00;;;7.32;;
44508;SDS011;30214;52.246;14.408;2023-05-07T00:53:33;11.70;;;7.45;;
44508;SDS011;30214;52.246;14.408;2023-05-07T00:56:01;10.43;;;7.35;;
44508;SDS011;30214;52.246;14.408;2023-05-07T00:58:28;9.40;;;7.03;;
44508;SDS011;30214;52.246;14.408;2023-05-07T01:00:56;10.65;;;8.10;;
44508;SDS011;30214;52.246;14.408;2023-05-07T01:03:23;10.85;;;7.47;;
44508;SDS011;30214;52.246;14.408;2023-05-07T01:05:52;9.23;;;6.38;;
44508;SDS011;30214;52.246;14.408;2023-05-07T01:08:21;13.75;;;7.20;;
44508;SDS011;30214;52.246;14.408;2023-05-07T01:10:51;11.43;;;7.35;;
44508;SDS011;30214;52.246;14.408;2023-05-07T01:13:19;11.02;;;6.90;;
44508;SDS011;30214;52.246;14.408;2023-05-07T01:15:47;10.38;;;6.95;;
44508;SDS011;30214;52.246;14.408;2023-05-07T01:18:14;11.10;;;6.85;;
44508;SDS011;30214;52.246;14.408;2023-05-07T01:20:42;11.70;;;6.68;;
44508;SDS011;30214;52.246;14.408;2023-05-07T01:23:10;11.60;;;7.20;;
44508;SDS011;30214;52.246;14.408;2023-05-07T01:25:38;11.07;;;8.15;;
44508;SDS011;30214;52.246;14.408;2023-05-07T01:28:06;11.43;;;7.88;;
44508;SDS011;30214;52.246;14.408;2023-05-07T01:30:35;10.88;;;7.35;;
44508;SDS011;30214;52.246;14.408;2023-05-07T01:33:08;11.88;;;7.72;;
44508;SDS011;30214;52.246;14.408;2023-05-07T01:35:38;11.32;;;7.88;;
44508;SDS011;30214;52.246;14.408;2023-05-07T01:38:15;10.88;;;7.65;;
44508;SDS011;30214;52.246;14.408;2023-05-07T01:40:43;11.73;;;7.60;;
44508;SDS011;30214;52.246;14.408;2023-05-07T01:43:11;11.07;;;7.50;;
44508;SDS011;30214;52.246;14.408;2023-05-07T01:45:38;13.85;;;7.10;;
44508;SDS011;30214;52.246;14.408;2023-05-07T01:48:06;9.32;;;7.50;;
44508;SDS011;30214;52.246;14.408;2023-05-07T01:50:35;10.10;;;7.15;;
44508;SDS011;30214;52.246;14.408;2023-05-07T01:53:03;10.80;;;7.32;;
44508;SDS011;30214;52.246;14.408;2023-05-07T01:55:32;11.82;;;8.18;;
44508;SDS011;30214;52.246;14.408;2023-05-07T01:57:59;11.52;;;7.50;;
44508;SDS011;30214;52.246;14.408;2023-05-07T02:00:26;14.23;;;7.57;;
44508;SDS011;30214;52.246;14.408;2023-05-07T02:02:54;14.07;;;7.95;;
44508;SDS011;30214;52.246;14.408;2023-05-07T02:05:47;14.32;;;8.68;;
44508;SDS011;30214;52.246;14.408;2023-05-07T02:08:33;11.02;;;8.10;;
44508;SDS011;30214;52.246;14.408;2023-05-07T02:11:02;10.07;;;7.88;;
44508;SDS011;30214;52.246;14.408;2023-05-07T02:13:31;10.90;;;8.20;;
44508;SDS011;30214;52.246;14.408;2023-05-07T02:15:59;12.30;;;8.05;;
44508;SDS011;30214;52.246;14.408;2023-05-07T02:18:27;11.65;;;7.55;;
44508;SDS011;30214;52.246;14.408;2023-05-07T02:20:54;11.55;;;8.43;;
44508;SDS011;30214;52.246;14.408;2023-05-07T02:23:21;10.95;;;9.05;;
44508;SDS011;30214;52.246;14.408;2023-05-07T02:25:49;12.30;;;8.60;;
44508;SDS011;30214;52.246;14.408;2023-05-07T02:28:17;12.68;;;8.68;;
44508;SDS011;30214;52.246;14.408;2023-05-07T02:30:52;13.80;;;8.48;;
44508;SDS011;30214;52.246;14.408;2023-05-07T02:33:20;13.85;;;9.40;;
44508;SDS011;30214;52.246;14.408;2023-05-07T02:35:47;11.50;;;8.25;;
44508;SDS011;30214;52.246;14.408;2023-05-07T02:38:15;13.18;;;8.50;;
44508;SDS011;30214;52.246;14.408;2023-05-07T02:40:42;13.98;;;9.38;;
44508;SDS011;30214;52.246;14.408;2023-05-07T02:43:10;12.52;;;9.57;;
44508;SDS011;30214;52.246;14.408;2023-05-07T02:45:41;14.90;;;9.82;;
44508;SDS011;30214;52.246;14.408;2023-05-07T02:48:10;11.40;;;8.70;;
44508;SDS011;30214;52.246;14.408;2023-05-07T02:50:37;14.55;;;9.32;;
44508;SDS011;30214;52.246;14.408;2023-05-07T02:53:04;14.20;;;9.23;;
44508;SDS011;30214;52.246;14.408;2023-05-07T02:55:31;17.13;;;9.65;;
44508;SDS011;30214;52.246;14.408;2023-05-07T02:57:58;17.20;;;9.35;;
44508;SDS011;30214;52.246;14.408;2023-05-07T03:00:25;12.10;;;9.27;;
44508;SDS011;30214;52.246;14.408;2023-05-07T03:03:16;11.82;;;9.32;;
44508;SDS011;30214;52.246;14.408;2023-05-07T03:05:43;12.57;;;9.77;;
44508;SDS011;30214;52.246;14.408;2023-05-07T03:08:10;12.73;;;9.55;;
44508;SDS011;30214;52.246;14.408;2023-05-07T03:10:38;14.00;;;10.48;;
44508;SDS011;30214;52.246;14.408;2023-05-07T03:13:05;15.25;;;9.52;;
44508;SDS011;30214;52.246;14.408;2023-05-07T03:15:32;13.18;;;9.45;;
44508;SDS011;30214;52.246;14.408;2023-05-07T03:17:59;12.50;;;9.43;;
44508;SDS011;30214;52.246;14.408;2023-05-07T03:20:27;11.35;;;9.10;;
44508;SDS011;30214;52.246;14.408;2023-05-07T03:22:55;12.23;;;8.70;;
44508;SDS011;30214;52.246;14.408;2023-05-07T03:25:23;12.32;;;9.13;;
44508;SDS011;30214;52.246;14.408;2023-05-07T03:27:50;13.77;;;9.25;;
44508;SDS011;30214;52.246;14.408;2023-05-07T03:30:21;11.00;;;8.13;;
44508;SDS011;30214;52.246;14.408;2023-05-07T03:32:48;11.73;;;8.05;;
44508;SDS011;30214;52.246;14.408;2023-05-07T03:35:15;13.23;;;8.38;;
44508;SDS011;30214;52.246;14.408;2023-05-07T03:37:44;10.93;;;8.20;;
44508;SDS011;30214;52.246;14.408;2023-05-07T03:40:11;10.88;;;8.02;;
44508;SDS011;30214;52.246;14.408;2023-05-07T03:42:48;11.55;;;7.53;;
44508;SDS011;30214;52.246;14.408;2023-05-07T03:45:17;12.00;;;7.53;;
44508;SDS011;30214;52.246;14.408;2023-05-07T03:47:50;16.13;;;7.67;;
44508;SDS011;30214;52.246;14.408;2023-05-07T03:50:19;12.30;;;8.18;;
44508;SDS011;30214;52.246;14.408;2023-05-07T03:52:48;11.77;;;7.80;;
44508;SDS011;30214;52.246;14.408;2023-05-07T03:55:18;12.80;;;8.02;;
44508;SDS011;30214;52.246;14.408;2023-05-07T03:57:50;11.50;;;7.15;;
44508;SDS011;30214;52.246;14.408;2023-05-07T04:00:18;9.63;;;7.50;;
44508;SDS011;30214;52.246;14.408;2023-05-07T04:02:46;12.57;;;7.68;;
44508;SDS011;30214;52.246;14.408;2023-05-07T04:05:17;12.00;;;7.30;;
44508;SDS011;30214;52.246;14.408;2023-05-07T04:07:48;14.48;;;7.38;;
44508;SDS011;30214;52.246;14.408;2023-05-07T04:10:20;10.20;;;7.50;;
44508;SDS011;30214;52.246;14.408;2023-05-07T04:12:49;9.98;;;7.15;;
44508;SDS011;30214;52.246;14.408;2023-05-07T04:15:20;9.50;;;7.32;;
44508;SDS011;30214;52.246;14.408;2023-05-07T04:17:47;9.65;;;7.45;;
44508;SDS011;30214;52.246;14.408;2023-05-07T04:20:16;10.13;;;7.35;;
44508;SDS011;30214;52.246;14.408;2023-05-07T04:22:49;9.85;;;7.13;;
44508;SDS011;30214;52.246;14.408;2023-05-07T04:25:16;10.73;;;6.68;;
44508;SDS011;30214;52.246;14.408;2023-05-07T04:27:44;12.05;;;7.38;;
44508;SDS011;30214;52.246;14.408;2023-05-07T04:30:12;9.98;;;6.68;;
44508;SDS011;30214;52.246;14.408;2023-05-07T04:32:40;8.88;;;6.97;;
44508;SDS011;30214;52.246;14.408;2023-05-07T04:35:07;12.27;;;7.45;;
44508;SDS011;30214;52.246;14.408;2023-05-07T04:37:35;12.38;;;7.25;;
44508;SDS011;30214;52.246;14.408;2023-05-07T04:40:05;10.27;;;7.50;;
44508;SDS011;30214;52.246;14.408;2023-05-07T04:42:33;12.82;;;7.63;;
44508;SDS011;30214;52.246;14.408;2023-05-07T04:45:01;10.38;;;7.25;;
44508;SDS011;30214;52.246;14.408;2023-05-07T04:47:32;10.55;;;7.25;;
44508;SDS011;30214;52.246;14.408;2023-05-07T04:50:00;9.70;;;7.18;;
44508;SDS011;30214;52.246;14.408;2023-05-07T04:52:27;11.43;;;7.72;;
44508;SDS011;30214;52.246;14.408;2023-05-07T04:55:01;12.13;;;7.18;;
44508;SDS011;30214;52.246;14.408;2023-05-07T04:57:35;10.85;;;7.18;;
44508;SDS011;30214;52.246;14.408;2023-05-07T05:00:04;13.55;;;7.50;;
44508;SDS011;30214;52.246;14.408;2023-05-07T05:02:35;11.30;;;7.38;;
44508;SDS011;30214;52.246;14.408;2023-05-07T05:05:02;10.85;;;7.10;;
44508;SDS011;30214;52.246;14.408;2023-05-07T05:07:30;10.68;;;7.10;;
44508;SDS011;30214;52.246;14.408;2023-05-07T05:09:57;12.73;;;7.22;;
44508;SDS011;30214;52.246;14.408;2023-05-07T05:12:25;10.20;;;7.28;;
44508;SDS011;30214;52.246;14.408;2023-05-07T05:14:53;9.95;;;7.00;;
44508;SDS011;30214;52.246;14.408;2023-05-07T05:17:20;9.77;;;6.97;;
44508;SDS011;30214;52.246;14.408;2023-05-07T05:19:48;12.15;;;6.90;;
44508;SDS011;30214;52.246;14.408;2023-05-07T05:22:15;9.57;;;6.93;;
44508;SDS011;30214;52.246;14.408;2023-05-07T05:24:42;10.77;;;7.40;;
44508;SDS011;30214;52.246;14.408;2023-05-07T05:27:09;9.13;;;6.85;;
44508;SDS011;30214;52.246;14.408;2023-05-07T05:29:36;8.68;;;6.47;;
44508;SDS011;30214;52.246;14.408;2023-05-07T05:32:05;9.20;;;5.95;;
44508;SDS011;30214;52.246;14.408;2023-05-07T05:34:32;11.05;;;6.45;;
44508;SDS011;30214;52.246;14.408;2023-05-07T05:36:59;10.80;;;6.35;;
44508;SDS011;30214;52.246;14.408;2023-05-07T05:39:27;8.60;;;6.20;;
44508;SDS011;30214;52.246;14.408;2023-05-07T05:41:54;9.65;;;6.35;;
44508;SDS011;30214;52.246;14.408;2023-05-07T05:44:21;10.45;;;6.15;;
44508;SDS011;30214;52.246;14.408;2023-05-07T05:46:49;10.02;;;5.60;;
44508;SDS011;30214;52.246;14.408;2023-05-07T05:49:17;9.38;;;5.90;;
44508;SDS011;30214;52.246;14.408;2023-05-07T05:51:44;11.18;;;5.90;;
44508;SDS011;30214;52.246;14.408;2023-05-07T05:54:12;11.98;;;5.88;;
44508;SDS011;30214;52.246;14.408;2023-05-07T05:56:39;9.13;;;5.55;;
44508;SDS011;30214;52.246;14.408;2023-05-07T05:59:06;8.25;;;5.35;;
44508;SDS011;30214;52.246;14.408;2023-05-07T06:01:33;9.65;;;5.72;;
44508;SDS011;30214;52.246;14.408;2023-05-07T06:04:02;11.05;;;5.20;;
44508;SDS011;30214;52.246;14.408;2023-05-07T06:06:31;10.30;;;5.32;;
44508;SDS011;30214;52.246;14.408;2023-05-07T06:09:00;9.25;;;4.75;;
44508;SDS011;30214;52.246;14.408;2023-05-07T06:11:34;9.38;;;4.97;;
44508;SDS011;30214;52.246;14.408;2023-05-07T06:14:01;8.20;;;5.00;;
44508;SDS011;30214;52.246;14.408;2023-05-07T06:16:29;8.68;;;5.05;;
44508;SDS011;30214;52.246;14.408;2023-05-07T06:18:57;8.75;;;4.72;;
44508;SDS011;30214;52.246;14.408;2023-05-07T06:21:24;10.88;;;5.55;;
44508;SDS011;30214;52.246;14.408;2023-05-07T06:23:52;10.60;;;5.28;;
44508;SDS011;30214;52.246;14.408;2023-05-07T06:26:20;7.85;;;5.07;;
44508;SDS011;30214;52.246;14.408;2023-05-07T06:28:47;8.48;;;4.38;;
44508;SDS011;30214;52.246;14.408;2023-05-07T06:31:16;6.90;;;3.97;;
44508;SDS011;30214;52.246;14.408;2023-05-07T06:33:52;5.60;;;4.30;;
44508;SDS011;30214;52.246;14.408;2023-05-07T06:36:20;8.77;;;4.00;;
44508;SDS011;30214;52.246;14.408;2023-05-07T06:38:48;7.38;;;4.43;;
44508;SDS011;30214;52.246;14.408;2023-05-07T06:41:16;6.22;;;3.90;;
44508;SDS011;30214;52.246;14.408;2023-05-07T06:43:43;7.13;;;4.50;;
44508;SDS011;30214;52.246;14.408;2023-05-07T06:46:29;7.40;;;4.38;;
44508;SDS011;30214;52.246;14.408;2023-05-07T06:48:56;7.63;;;3.92;;
44508;SDS011;30214;52.246;14.408;2023-05-07T06:51:25;8.70;;;4.30;;
44508;SDS011;30214;52.246;14.408;2023-05-07T06:53:53;6.25;;;4.03;;
44508;SDS011;30214;52.246;14.408;2023-05-07T06:56:21;8.95;;;4.35;;
44508;SDS011;30214;52.246;14.408;2023-05-07T06:58:49;9.07;;;4.30;;
44508;SDS011;30214;52.246;14.408;2023-05-07T07:01:17;7.05;;;4.63;;
44508;SDS011;30214;52.246;14.408;2023-05-07T07:03:45;8.15;;;4.45;;
44508;SDS011;30214;52.246;14.408;2023-05-07T07:06:12;6.78;;;4.47;;
44508;SDS011;30214;52.246;14.408;2023-05-07T07:08:40;7.70;;;4.20;;
44508;SDS011;30214;52.246;14.408;2023-05-07T07:11:09;7.13;;;3.97;;
44508;SDS011;30214;52.246;14.408;2023-05-07T07:13:38;6.28;;;3.90;;
44508;SDS011;30214;52.246;14.408;2023-05-07T07:16:05;8.48;;;4.40;;
44508;SDS011;30214;52.246;14.408;2023-05-07T07:18:33;5.50;;;3.50;;
44508;SDS011;30214;52.246;14.408;2023-05-07T07:21:01;7.70;;;3.15;;
44508;SDS011;30214;52.246;14.408;2023-05-07T07:23:29;5.65;;;3.17;;
44508;SDS011;30214;52.246;14.408;2023-05-07T07:25:56;7.30;;;3.70;;
44508;SDS011;30214;52.246;14.408;2023-05-07T07:28:24;7.75;;;3.55;;
44508;SDS011;30214;52.246;14.408;2023-05-07T07:30:53;5.10;;;3.33;;
44508;SDS011;30214;52.246;14.408;2023-05-07T07:33:20;5.45;;;3.50;;
44508;SDS011;30214;52.246;14.408;2023-05-07T07:35:48;7.45;;;3.40;;
44508;SDS011;30214;52.246;14.408;2023-05-07T07:38:15;5.53;;;3.45;;
44508;SDS011;30214;52.246;14.408;2023-05-07T07:40:42;5.38;;;3.00;;
44508;SDS011;30214;52.246;14.408;2023-05-07T07:43:11;6.13;;;3.10;;
44508;SDS011;30214;52.246;14.408;2023-05-07T07:45:38;4.35;;;3.00;;
44508;SDS011;30214;52.246;14.408;2023-05-07T07:48:08;6.30;;;3.75;;
44508;SDS011;30214;52.246;14.408;2023-05-07T07:50:37;7.43;;;2.95;;
44508;SDS011;30214;52.246;14.408;2023-05-07T07:53:06;8.40;;;3.67;;
44508;SDS011;30214;52.246;14.408;2023-05-07T07:55:37;4.78;;;3.05;;
44508;SDS011;30214;52.246;14.408;2023-05-07T07:58:05;4.97;;;3.55;;
44508;SDS011;30214;52.246;14.408;2023-05-07T08:00:33;6.10;;;3.10;;
44508;SDS011;30214;52.246;14.408;2023-05-07T08:03:01;6.03;;;3.20;;
44508;SDS011;30214;52.246;14.408;2023-05-07T08:05:34;4.90;;;3.20;;
44508;SDS011;30214;52.246;14.408;2023-05-07T08:08:03;4.13;;;3.13;;
44508;SDS011;30214;52.246;14.408;2023-05-07T08:10:33;5.10;;;3.20;;
44508;SDS011;30214;52.246;14.408;2023-05-07T08:13:09;5.93;;;2.85;;
44508;SDS011;30214;52.246;14.408;2023-05-07T08:15:41;5.88;;;3.13;;
44508;SDS011;30214;52.246;14.408;2023-05-07T08:18:10;5.10;;;2.80;;
44508;SDS011;30214;52.246;14.408;2023-05-07T08:20:39;4.28;;;2.83;;
44508;SDS011;30214;52.246;14.408;2023-05-07T08:23:12;5.25;;;2.92;;
44508;SDS011;30214;52.246;14.408;2023-05-07T08:25:40;4.72;;;2.80;;
44508;SDS011;30214;52.246;14.408;2023-05-07T08:28:09;6.45;;;2.65;;
44508;SDS011;30214;52.246;14.408;2023-05-07T08:30:37;4.47;;;2.83;;
44508;SDS011;30214;52.246;14.408;2023-05-07T08:33:05;4.85;;;2.70;;
44508;SDS011;30214;52.246;14.408;2023-05-07T08:35:32;5.57;;;3.20;;
44508;SDS011;30214;52.246;14.408;2023-05-07T08:38:00;4.35;;;2.65;;
44508;SDS011;30214;52.246;14.408;2023-05-07T08:40:28;6.75;;;3.10;;
44508;SDS011;30214;52.246;14.408;2023-05-07T08:42:59;5.25;;;2.70;;
44508;SDS011;30214;52.246;14.408;2023-05-07T08:45:28;11.25;;;2.90;;
44508;SDS011;30214;52.246;14.408;2023-05-07T08:48:01;7.95;;;2.70;;
44508;SDS011;30214;52.246;14.408;2023-05-07T08:50:35;4.70;;;2.80;;
44508;SDS011;30214;52.246;14.408;2023-05-07T08:53:05;5.00;;;2.55;;
44508;SDS011;30214;52.246;14.408;2023-05-07T08:55:33;4.63;;;2.55;;
44508;SDS011;30214;52.246;14.408;2023-05-07T08:58:03;3.55;;;2.40;;
44508;SDS011;30214;52.246;14.408;2023-05-07T09:00:33;6.10;;;3.08;;
44508;SDS011;30214;52.246;14.408;2023-05-07T09:03:04;4.43;;;2.22;;
44508;SDS011;30214;52.246;14.408;2023-05-07T09:05:32;4.13;;;2.25;;
44508;SDS011;30214;52.246;14.408;2023-05-07T09:08:03;4.28;;;2.60;;
44508;SDS011;30214;52.246;14.408;2023-05-07T09:10:36;5.70;;;2.30;;
44508;SDS011;30214;52.246;14.408;2023-05-07T09:13:05;3.72;;;2.10;;
44508;SDS011;30214;52.246;14.408;2023-05-07T09:15:33;7.13;;;2.15;;
44508;SDS011;30214;52.246;14.408;2023-05-07T09:18:02;5.68;;;2.20;;
44508;SDS011;30214;52.246;14.408;2023-05-07T09:20:33;3.65;;;2.30;;
44508;SDS011;30214;52.246;14.408;2023-05-07T09:23:05;5.78;;;2.80;;
44508;SDS011;30214;52.246;14.408;2023-05-07T09:25:36;4.55;;;2.20;;
44508;SDS011;30214;52.246;14.408;2023-05-07T09:28:11;4.78;;;2.58;;
44508;SDS011;30214;52.246;14.408;2023-05-07T09:30:39;4.38;;;2.17;;
44508;SDS011;30214;52.246;14.408;2023-05-07T09:33:11;4.68;;;2.30;;
44508;SDS011;30214;52.246;14.408;2023-05-07T09:35:43;5.32;;;2.45;;
44508;SDS011;30214;52.246;14.408;2023-05-07T09:38:17;4.07;;;2.40;;
44508;SDS011;30214;52.246;14.408;2023-05-07T09:40:54;4.40;;;2.20;;
44508;SDS011;30214;52.246;14.408;2023-05-07T09:43:32;7.25;;;2.10;;
44508;SDS011;30214;52.246;14.408;2023-05-07T09:46:06;3.70;;;2.10;;
44508;SDS011;30214;52.246;14.408;2023-05-07T09:48:36;4.15;;;1.75;;
44508;SDS011;30214;52.246;14.408;2023-05-07T09:51:11;3.63;;;2.35;;
44508;SDS011;30214;52.246;14.408;2023-05-07T09:53:53;4.78;;;1.98;;
44508;SDS011;30214;52.246;14.408;2023-05-07T09:56:23;3.70;;;2.15;;
44508;SDS011;30214;52.246;14.408;2023-05-07T09:58:52;4.53;;;2.25;;
44508;SDS011;30214;52.246;14.408;2023-05-07T10:01:23;6.15;;;2.50;;
44508;SDS011;30214;52.246;14.408;2023-05-07T10:03:53;4.93;;;2.53;;
44508;SDS011;30214;52.246;14.408;2023-05-07T10:06:21;5.07;;;2.20;;
44508;SDS011;30214;52.246;14.408;2023-05-07T10:08:51;4.75;;;2.13;;
44508;SDS011;30214;52.246;14.408;2023-05-07T10:11:22;5.85;;;2.35;;
44508;SDS011;30214;52.246;14.408;2023-05-07T10:13:50;3.67;;;2.08;;
44508;SDS011;30214;52.246;14.408;2023-05-07T10:16:20;3.17;;;1.98;;
44508;SDS011;30214;52.246;14.408;2023-05-07T10:18:48;5.18;;;2.35;;
44508;SDS011;30214;52.246;14.408;2023-05-07T10:21:21;5.18;;;1.90;;
44508;SDS011;30214;52.246;14.408;2023-05-07T10:23:57;2.97;;;1.77;;
44508;SDS011;30214;52.246;14.408;2023-05-07T10:26:29;3.80;;;1.70;;
44508;SDS011;30214;52.246;14.408;2023-05-07T10:28:59;3.13;;;1.77;;
44508;SDS011;30214;52.246;14.408;2023-05-07T10:31:48;3.75;;;1.70;;
44508;SDS011;30214;52.246;14.408;2023-05-07T10:34:23;2.78;;;1.58;;
44508;SDS011;30214;52.246;14.408;2023-05-07T10:36:56;2.97;;;1.80;;
44508;SDS011;30214;52.246;14.408;2023-05-07T10:39:25;5.75;;;1.40;;
44508;SDS011;30214;52.246;14.408;2023-05-07T10:41:53;3.85;;;1.70;;
44508;SDS011;30214;52.246;14.408;2023-05-07T10:44:25;4.82;;;1.50;;
44508;SDS011;30214;52.246;14.408;2023-05-07T10:47:04;4.53;;;1.60;;
44508;SDS011;30214;52.246;14.408;2023-05-07T10:49:36;4.70;;;1.70;;
44508;SDS011;30214;52.246;14.408;2023-05-07T10:52:15;7.32;;;1.70;;
44508;SDS011;30214;52.246;14.408;2023-05-07T10:58:24;4.03;;;1.92;;
44508;SDS011;30214;52.246;14.408;2023-05-07T11:01:01;3.03;;;1.70;;
44508;SDS011;30214;52.246;14.408;2023-05-07T11:04:11;3.00;;;1.42;;
44508;SDS011;30214;52.246;14.408;2023-05-07T11:06:49;4.43;;;1.67;;
44508;SDS011;30214;52.246;14.408;2023-05-07T11:10:12;4.25;;;1.70;;
44508;SDS011;30214;52.246;14.408;2023-05-07T11:12:50;6.80;;;1.50;;
44508;SDS011;30214;52.246;14.408;2023-05-07T11:15:34;4.70;;;1.48;;
44508;SDS011;30214;52.246;14.408;2023-05-07T11:18:12;3.10;;;1.50;;
44508;SDS011;30214;52.246;14.408;2023-05-07T11:20:44;2.70;;;1.60;;
44508;SDS011;30214;52.246;14.408;2023-05-07T11:23:56;5.55;;;1.60;;
44508;SDS011;30214;52.246;14.408;2023-05-07T11:26:45;2.78;;;1.52;;
44508;SDS011;30214;52.246;14.408;2023-05-07T11:29:16;4.55;;;1.70;;
44508;SDS011;30214;52.246;14.408;2023-05-07T11:31:50;4.50;;;1.58;;
44508;SDS011;30214;52.246;14.408;2023-05-07T11:34:22;3.17;;;1.60;;
44508;SDS011;30214;52.246;14.408;2023-05-07T11:36:58;5.20;;;1.48;;
44508;SDS011;30214;52.246;14.408;2023-05-07T11:39:41;3.22;;;1.60;;
44508;SDS011;30214;52.246;14.408;2023-05-07T11:42:21;2.45;;;1.40;;
44508;SDS011;30214;52.246;14.408;2023-05-07T11:44:56;3.17;;;1.58;;
44508;SDS011;30214;52.246;14.408;2023-05-07T11:47:24;3.33;;;1.60;;
44508;SDS011;30214;52.246;14.408;2023-05-07T11:49:52;4.63;;;1.70;;
44508;SDS011;30214;52.246;14.408;2023-05-07T11:52:24;2.95;;;1.63;;
44508;SDS011;30214;52.246;14.408;2023-05-07T11:55:02;4.05;;;1.80;;
44508;SDS011;30214;52.246;14.408;2023-05-07T11:57:32;7.30;;;1.50;;
44508;SDS011;30214;52.246;14.408;2023-05-07T12:00:05;3.17;;;1.40;;
44508;SDS011;30214;52.246;14.408;2023-05-07T12:02:39;3.33;;;1.45;;
44508;SDS011;30214;52.246;14.408;2023-05-07T12:05:08;2.58;;;1.50;;
44508;SDS011;30214;52.246;14.408;2023-05-07T12:07:35;2.83;;;1.70;;
44508;SDS011;30214;52.246;14.408;2023-05-07T12:10:06;4.30;;;1.70;;
44508;SDS011;30214;52.246;14.408;2023-05-07T12:12:37;3.97;;;1.50;;
44508;SDS011;30214;52.246;14.408;2023-05-07T12:15:10;3.83;;;1.60;;
44508;SDS011;30214;52.246;14.408;2023-05-07T12:17:37;3.20;;;1.40;;
44508;SDS011;30214;52.246;14.408;2023-05-07T12:20:06;2.92;;;1.33;;
44508;SDS011;30214;52.246;14.408;2023-05-07T12:22:37;2.97;;;1.52;;
44508;SDS011;30214;52.246;14.408;2023-05-07T12:25:05;3.45;;;1.63;;
44508;SDS011;30214;52.246;14.408;2023-05-07T12:27:40;3.58;;;1.58;;
44508;SDS011;30214;52.246;14.408;2023-05-07T12:30:12;3.15;;;1.63;;
44508;SDS011;30214;52.246;14.408;2023-05-07T12:32:40;5.68;;;1.40;;
44508;SDS011;30214;52.246;14.408;2023-05-07T12:35:08;2.35;;;1.40;;
44508;SDS011;30214;52.246;14.408;2023-05-07T12:37:38;2.60;;;1.30;;
44508;SDS011;30214;52.246;14.408;2023-05-07T12:40:06;6.78;;;1.50;;
44508;SDS011;30214;52.246;14.408;2023-05-07T12:42:40;2.85;;;1.45;;
44508;SDS011;30214;52.246;14.408;2023-05-07T12:45:08;3.30;;;1.70;;
44508;SDS011;30214;52.246;14.408;2023-05-07T12:47:39;4.65;;;1.50;;
44508;SDS011;30214;52.246;14.408;2023-05-07T12:50:10;5.97;;;1.40;;
44508;SDS011;30214;52.246;14.408;2023-05-07T12:52:37;3.00;;;1.55;;
44508;SDS011;30214;52.246;14.408;2023-05-07T12:55:05;2.72;;;1.30;;
44508;SDS011;30214;52.246;14.408;2023-05-07T12:57:37;2.75;;;1.30;;
44508;SDS011;30214;52.246;14.408;2023-05-07T13:00:07;3.80;;;1.70;;
44508;SDS011;30214;52.246;14.408;2023-05-07T13:02:41;2.42;;;1.30;;
44508;SDS011;30214;52.246;14.408;2023-05-07T13:05:10;4.68;;;1.42;;
44508;SDS011;30214;52.246;14.408;2023-05-07T13:07:39;2.70;;;1.40;;
44508;SDS011;30214;52.246;14.408;2023-05-07T13:10:07;2.58;;;1.40;;
44508;SDS011;30214;52.246;14.408;2023-05-07T13:12:35;2.42;;;1.25;;
44508;SDS011;30214;52.246;14.408;2023-05-07T13:15:05;4.30;;;1.60;;
44508;SDS011;30214;52.246;14.408;2023-05-07T13:17:34;2.78;;;1.30;;
44508;SDS011;30214;52.246;14.408;2023-05-07T13:20:08;3.80;;;1.77;;
44508;SDS011;30214;52.246;14.408;2023-05-07T13:22:39;2.53;;;1.30;;
44508;SDS011;30214;52.246;14.408;2023-05-07T13:25:09;6.40;;;1.50;;
44508;SDS011;30214;52.246;14.408;2023-05-07T13:27:38;2.53;;;1.40;;
44508;SDS011;30214;52.246;14.408;2023-05-07T13:30:07;2.75;;;1.40;;
44508;SDS011;30214;52.246;14.408;2023-05-07T13:32:35;4.72;;;1.40;;
44508;SDS011;30214;52.246;14.408;2023-05-07T13:35:05;4.47;;;1.40;;
44508;SDS011;30214;52.246;14.408;2023-05-07T13:37:36;5.13;;;1.53;;
44508;SDS011;30214;52.246;14.408;2023-05-07T13:40:04;5.75;;;1.40;;
44508;SDS011;30214;52.246;14.408;2023-05-07T13:42:32;3.92;;;1.58;;
44508;SDS011;30214;52.246;14.408;2023-05-07T13:44:59;3.92;;;1.50;;
44508;SDS011;30214;52.246;14.408;2023-05-07T13:47:28;4.70;;;1.50;;
44508;SDS011;30214;52.246;14.408;2023-05-07T13:49:55;2.80;;;1.50;;
44508;SDS011;30214;52.246;14.408;2023-05-07T13:52:24;2.92;;;1.40;;
44508;SDS011;30214;52.246;14.408;2023-05-07T13:54:51;2.88;;;1.42;;
44508;SDS011;30214;52.246;14.408;2023-05-07T13:57:19;3.55;;;1.60;;
44508;SDS011;30214;52.246;14.408;2023-05-07T13:59:47;3.28;;;1.30;;
44508;SDS011;30214;52.246;14.408;2023-05-07T14:02:15;3.60;;;1.23;;
44508;SDS011;30214;52.246;14.408;2023-05-07T14:04:42;4.18;;;1.40;;
44508;SDS011;30214;52.246;14.408;2023-05-07T14:07:10;3.45;;;1.50;;
44508;SDS011;30214;52.246;14.408;2023-05-07T14:09:40;2.78;;;1.30;;
44508;SDS011;30214;52.246;14.408;2023-05-07T14:12:06;2.85;;;1.40;;
44508;SDS011;30214;52.246;14.408;2023-05-07T14:14:35;3.47;;;1.40;;
44508;SDS011;30214;52.246;14.408;2023-05-07T14:17:03;4.65;;;1.40;;
44508;SDS011;30214;52.246;14.408;2023-05-07T14:19:31;3.08;;;1.45;;
44508;SDS011;30214;52.246;14.408;2023-05-07T14:21:58;3.88;;;1.38;;
44508;SDS011;30214;52.246;14.408;2023-05-07T14:24:25;3.10;;;1.38;;
44508;SDS011;30214;52.246;14.408;2023-05-07T14:26:54;4.45;;;1.35;;
44508;SDS011;30214;52.246;14.408;2023-05-07T14:29:21;3.85;;;1.35;;
44508;SDS011;30214;52.246;14.408;2023-05-07T14:31:48;3.35;;;1.40;;
44508;SDS011;30214;52.246;14.408;2023-05-07T14:34:15;4.97;;;1.27;;
44508;SDS011;30214;52.246;14.408;2023-05-07T14:36:42;2.28;;;1.27;;
44508;SDS011;30214;52.246;14.408;2023-05-07T14:39:13;2.10;;;1.25;;
44508;SDS011;30214;52.246;14.408;2023-05-07T14:41:41;3.97;;;1.40;;
44508;SDS011;30214;52.246;14.408;2023-05-07T14:44:10;4.13;;;1.30;;
44508;SDS011;30214;52.246;14.408;2023-05-07T14:46:38;3.33;;;1.48;;
44508;SDS011;30214;52.246;14.408;2023-05-07T14:49:05;2.25;;;1.30;;
44508;SDS011;30214;52.246;14.408;2023-05-07T14:51:43;2.85;;;1.63;;